sensor_id;sensor_type;location;lat;lon;timestamp;temperature;humidity
7331;DHT22;3706;49.198;7.064;2023-12-29T00:01:24;7.90;99.90
7331;DHT22;3706;49.198;7.064;2023-12-29T00:03:56;7.90;99.90
7331;DHT22;3706;49.198;7.064;2023-12-29T00:06:23;7.90;99.90
7331;DHT22;3706;49.198;7.064;2023-12-29T00:08:50;7.90;99.90
7331;DHT22;3706;49.198;7.064;2023-12-29T00:11:18;7.90;99.90
7331;DHT22;3706;49.198;7.064;2023-12-29T00:13:47;8.00;99.90
7331;DHT22;3706;49.198;7.064;2023-12-29T00:16:15;8.00;99.90
7331;DHT22;3706;49.198;7.064;2023-12-29T00:18:42;8.10;99.90
7331;DHT22;3706;49.198;7.064;2023-12-29T00:21:09;8.10;99.90
7331;DHT22;3706;49.198;7.064;2023-12-29T00:23:36;8.10;99.90
7331;DHT22;3706;49.198;7.064;2023-12-29T00:26:03;8.20;99.90
7331;DHT22;3706;49.198;7.064;2023-12-29T00:28:30;8.20;99.90
7331;DHT22;3706;49.198;7.064;2023-12-29T00:30:59;8.20;99.90
7331;DHT22;3706;49.198;7.064;2023-12-29T00:33:26;8.20;99.90
7331;DHT22;3706;49.198;7.064;2023-12-29T00:35:53;8.10;99.90
7331;DHT22;3706;49.198;7.064;2023-12-29T00:38:21;8.10;99.90
7331;DHT22;3706;49.198;7.064;2023-12-29T00:40:48;8.00;99.90
7331;DHT22;3706;49.198;7.064;2023-12-29T00:43:16;7.90;99.90
7331;DHT22;3706;49.198;7.064;2023-12-29T00:45:43;7.90;99.90
7331;DHT22;3706;49.198;7.064;2023-12-29T00:48:12;7.90;99.90
7331;DHT22;3706;49.198;7.064;2023-12-29T00:50:39;7.90;99.90
7331;DHT22;3706;49.198;7.064;2023-12-29T00:53:06;7.80;99.90
7331;DHT22;3706;49.198;7.064;2023-12-29T00:55:33;7.70;99.90
7331;DHT22;3706;49.198;7.064;2023-12-29T00:58:00;7.70;99.90
7331;DHT22;3706;49.198;7.064;2023-12-29T01:00:27;7.60;99.90
7331;DHT22;3706;49.198;7.064;2023-12-29T01:02:54;7.60;99.90
7331;DHT22;3706;49.198;7.064;2023-12-29T01:05:22;7.50;99.90
7331;DHT22;3706;49.198;7.064;2023-12-29T01:07:50;7.50;99.90
7331;DHT22;3706;49.198;7.064;2023-12-29T01:10:17;7.50;99.90
7331;DHT22;3706;49.198;7.064;2023-12-29T01:12:44;7.50;99.90
7331;DHT22;3706;49.198;7.064;2023-12-29T01:15:11;7.40;99.90
7331;DHT22;3706;49.198;7.064;2023-12-29T01:17:38;7.40;99.90
7331;DHT22;3706;49.198;7.064;2023-12-29T01:20:06;7.40;99.90
7331;DHT22;3706;49.198;7.064;2023-12-29T01:22:37;7.30;99.90
7331;DHT22;3706;49.198;7.064;2023-12-29T01:25:05;7.30;99.90
7331;DHT22;3706;49.198;7.064;2023-12-29T01:27:32;7.20;99.90
7331;DHT22;3706;49.198;7.064;2023-12-29T01:30:00;7.20;99.90
7331;DHT22;3706;49.198;7.064;2023-12-29T01:32:27;7.20;99.90
7331;DHT22;3706;49.198;7.064;2023-12-29T01:34:57;7.20;99.90
7331;DHT22;3706;49.198;7.064;2023-12-29T01:37:24;7.20;99.90
7331;DHT22;3706;49.198;7.064;2023-12-29T01:39:53;7.20;99.90
7331;DHT22;3706;49.198;7.064;2023-12-29T01:42:21;7.20;99.90
7331;DHT22;3706;49.198;7.064;2023-12-29T01:44:48;7.20;99.90
7331;DHT22;3706;49.198;7.064;2023-12-29T01:47:20;7.20;99.90
7331;DHT22;3706;49.198;7.064;2023-12-29T01:49:49;7.30;99.90
7331;DHT22;3706;49.198;7.064;2023-12-29T01:52:17;7.40;99.90
7331;DHT22;3706;49.198;7.064;2023-12-29T01:54:46;7.40;99.90
7331;DHT22;3706;49.198;7.064;2023-12-29T01:57:14;7.50;99.90
7331;DHT22;3706;49.198;7.064;2023-12-29T01:59:44;7.50;99.90
7331;DHT22;3706;49.198;7.064;2023-12-29T02:02:16;7.50;99.90
7331;DHT22;3706;49.198;7.064;2023-12-29T02:04:44;7.50;99.90
7331;DHT22;3706;49.198;7.064;2023-12-29T02:07:12;7.50;99.90
7331;DHT22;3706;49.198;7.064;2023-12-29T02:09:39;7.60;99.90
7331;DHT22;3706;49.198;7.064;2023-12-29T02:12:07;7.60;99.90
7331;DHT22;3706;49.198;7.064;2023-12-29T02:14:36;7.60;99.90
7331;DHT22;3706;49.198;7.064;2023-12-29T02:17:09;7.50;99.90
7331;DHT22;3706;49.198;7.064;2023-12-29T02:19:38;7.50;99.90
7331;DHT22;3706;49.198;7.064;2023-12-29T02:22:06;7.50;99.90
7331;DHT22;3706;49.198;7.064;2023-12-29T02:24:35;7.40;99.90
7331;DHT22;3706;49.198;7.064;2023-12-29T02:27:11;7.40;99.90
7331;DHT22;3706;49.198;7.064;2023-12-29T02:29:44;7.50;99.90
7331;DHT22;3706;49.198;7.064;2023-12-29T02:32:18;7.50;99.90
7331;DHT22;3706;49.198;7.064;2023-12-29T02:34:50;7.40;99.90
7331;DHT22;3706;49.198;7.064;2023-12-29T02:37:19;7.40;99.90
7331;DHT22;3706;49.198;7.064;2023-12-29T02:39:47;7.30;99.90
7331;DHT22;3706;49.198;7.064;2023-12-29T02:42:18;7.30;99.90
7331;DHT22;3706;49.198;7.064;2023-12-29T02:44:45;7.30;99.90
7331;DHT22;3706;49.198;7.064;2023-12-29T02:47:13;7.20;99.90
7331;DHT22;3706;49.198;7.064;2023-12-29T02:49:42;7.10;99.90
7331;DHT22;3706;49.198;7.064;2023-12-29T02:52:09;7.00;99.90
7331;DHT22;3706;49.198;7.064;2023-12-29T02:54:36;6.90;99.90
7331;DHT22;3706;49.198;7.064;2023-12-29T02:57:04;6.90;99.90
7331;DHT22;3706;49.198;7.064;2023-12-29T02:59:33;6.80;99.90
7331;DHT22;3706;49.198;7.064;2023-12-29T03:02:00;6.80;99.90
7331;DHT22;3706;49.198;7.064;2023-12-29T03:05:26;6.80;99.90
7331;DHT22;3706;49.198;7.064;2023-12-29T03:09:03;6.80;99.90
7331;DHT22;3706;49.198;7.064;2023-12-29T03:11:30;6.60;99.90
7331;DHT22;3706;49.198;7.064;2023-12-29T03:14:46;6.60;99.90
7331;DHT22;3706;49.198;7.064;2023-12-29T03:18:15;6.70;99.90
7331;DHT22;3706;49.198;7.064;2023-12-29T03:21:57;6.80;99.90
7331;DHT22;3706;49.198;7.064;2023-12-29T03:25:38;6.90;99.90
7331;DHT22;3706;49.198;7.064;2023-12-29T03:29:16;6.90;99.90
7331;DHT22;3706;49.198;7.064;2023-12-29T03:32:53;7.00;99.90
7331;DHT22;3706;49.198;7.064;2023-12-29T03:36:35;7.00;99.90
7331;DHT22;3706;49.198;7.064;2023-12-29T03:39:04;7.10;99.90
7331;DHT22;3706;49.198;7.064;2023-12-29T03:41:31;7.00;99.90
7331;DHT22;3706;49.198;7.064;2023-12-29T03:43:58;7.00;99.90
7331;DHT22;3706;49.198;7.064;2023-12-29T03:46:28;7.00;99.90
7331;DHT22;3706;49.198;7.064;2023-12-29T03:49:02;7.10;99.90
7331;DHT22;3706;49.198;7.064;2023-12-29T03:51:30;7.20;99.90
7331;DHT22;3706;49.198;7.064;2023-12-29T03:54:01;7.20;99.90
7331;DHT22;3706;49.198;7.064;2023-12-29T03:56:29;7.20;99.90
7331;DHT22;3706;49.198;7.064;2023-12-29T03:58:56;7.20;99.90
7331;DHT22;3706;49.198;7.064;2023-12-29T04:01:24;7.20;99.90
7331;DHT22;3706;49.198;7.064;2023-12-29T04:03:53;7.10;99.90
7331;DHT22;3706;49.198;7.064;2023-12-29T04:06:21;7.10;99.90
7331;DHT22;3706;49.198;7.064;2023-12-29T04:08:48;7.00;99.90
7331;DHT22;3706;49.198;7.064;2023-12-29T04:11:16;6.90;99.90
7331;DHT22;3706;49.198;7.064;2023-12-29T04:13:43;6.90;99.90
7331;DHT22;3706;49.198;7.064;2023-12-29T04:16:10;6.90;99.90
7331;DHT22;3706;49.198;7.064;2023-12-29T04:18:37;6.80;99.90
7331;DHT22;3706;49.198;7.064;2023-12-29T04:21:05;6.70;99.90
7331;DHT22;3706;49.198;7.064;2023-12-29T04:23:37;6.60;99.90
7331;DHT22;3706;49.198;7.064;2023-12-29T04:26:04;6.60;99.90
7331;DHT22;3706;49.198;7.064;2023-12-29T04:28:31;6.70;99.90
7331;DHT22;3706;49.198;7.064;2023-12-29T04:30:58;6.70;99.90
7331;DHT22;3706;49.198;7.064;2023-12-29T04:33:26;6.80;99.90
7331;DHT22;3706;49.198;7.064;2023-12-29T04:35:53;6.80;99.90
7331;DHT22;3706;49.198;7.064;2023-12-29T04:38:21;6.80;99.90
7331;DHT22;3706;49.198;7.064;2023-12-29T04:40:50;6.70;99.90
7331;DHT22;3706;49.198;7.064;2023-12-29T04:43:17;6.80;99.90
7331;DHT22;3706;49.198;7.064;2023-12-29T04:45:44;6.90;99.90
7331;DHT22;3706;49.198;7.064;2023-12-29T04:48:11;7.10;99.90
7331;DHT22;3706;49.198;7.064;2023-12-29T04:50:38;7.00;99.90
7331;DHT22;3706;49.198;7.064;2023-12-29T04:53:05;7.00;99.90
7331;DHT22;3706;49.198;7.064;2023-12-29T04:55:32;7.00;99.90
7331;DHT22;3706;49.198;7.064;2023-12-29T04:58:01;7.00;99.90
7331;DHT22;3706;49.198;7.064;2023-12-29T05:00:27;6.90;99.90
7331;DHT22;3706;49.198;7.064;2023-12-29T05:02:55;7.00;99.90
7331;DHT22;3706;49.198;7.064;2023-12-29T05:05:22;7.10;99.90
7331;DHT22;3706;49.198;7.064;2023-12-29T05:07:50;7.10;99.90
7331;DHT22;3706;49.198;7.064;2023-12-29T05:10:17;7.20;99.90
7331;DHT22;3706;49.198;7.064;2023-12-29T05:12:44;7.20;99.90
7331;DHT22;3706;49.198;7.064;2023-12-29T05:15:12;7.30;99.90
7331;DHT22;3706;49.198;7.064;2023-12-29T05:17:40;7.30;99.90
7331;DHT22;3706;49.198;7.064;2023-12-29T05:20:08;7.40;99.90
7331;DHT22;3706;49.198;7.064;2023-12-29T05:22:36;7.40;99.90
7331;DHT22;3706;49.198;7.064;2023-12-29T05:25:03;7.40;99.90
7331;DHT22;3706;49.198;7.064;2023-12-29T05:27:30;7.50;99.90
7331;DHT22;3706;49.198;7.064;2023-12-29T05:29:58;7.60;99.90
7331;DHT22;3706;49.198;7.064;2023-12-29T05:32:27;7.60;99.90
7331;DHT22;3706;49.198;7.064;2023-12-29T05:34:54;7.50;99.90
7331;DHT22;3706;49.198;7.064;2023-12-29T05:37:21;7.50;99.90
7331;DHT22;3706;49.198;7.064;2023-12-29T05:39:48;7.40;99.90
7331;DHT22;3706;49.198;7.064;2023-12-29T05:42:15;7.50;99.90
7331;DHT22;3706;49.198;7.064;2023-12-29T05:44:42;7.50;99.90
7331;DHT22;3706;49.198;7.064;2023-12-29T05:47:09;7.50;99.90
7331;DHT22;3706;49.198;7.064;2023-12-29T05:49:38;7.50;99.90
7331;DHT22;3706;49.198;7.064;2023-12-29T05:52:06;7.60;99.90
7331;DHT22;3706;49.198;7.064;2023-12-29T05:54:37;7.60;99.90
7331;DHT22;3706;49.198;7.064;2023-12-29T05:57:06;7.60;99.90
7331;DHT22;3706;49.198;7.064;2023-12-29T05:59:37;7.60;99.90
7331;DHT22;3706;49.198;7.064;2023-12-29T06:02:06;7.60;99.90
7331;DHT22;3706;49.198;7.064;2023-12-29T06:04:33;7.60;99.90
7331;DHT22;3706;49.198;7.064;2023-12-29T06:07:02;7.70;99.90
7331;DHT22;3706;49.198;7.064;2023-12-29T06:09:29;7.70;99.90
7331;DHT22;3706;49.198;7.064;2023-12-29T06:11:56;7.70;99.90
7331;DHT22;3706;49.198;7.064;2023-12-29T06:14:23;7.70;99.90
7331;DHT22;3706;49.198;7.064;2023-12-29T06:16:52;7.70;99.90
7331;DHT22;3706;49.198;7.064;2023-12-29T06:19:19;7.80;99.90
7331;DHT22;3706;49.198;7.064;2023-12-29T06:21:46;7.80;99.90
7331;DHT22;3706;49.198;7.064;2023-12-29T06:24:16;7.80;99.90
7331;DHT22;3706;49.198;7.064;2023-12-29T06:26:44;7.80;99.90
7331;DHT22;3706;49.198;7.064;2023-12-29T06:29:11;7.90;99.90
7331;DHT22;3706;49.198;7.064;2023-12-29T06:31:40;8.00;99.90
7331;DHT22;3706;49.198;7.064;2023-12-29T06:34:08;8.10;99.90
7331;DHT22;3706;49.198;7.064;2023-12-29T06:36:35;8.10;99.90
7331;DHT22;3706;49.198;7.064;2023-12-29T06:39:03;8.10;99.90
7331;DHT22;3706;49.198;7.064;2023-12-29T06:41:32;8.10;99.90
7331;DHT22;3706;49.198;7.064;2023-12-29T06:43:59;8.20;99.90
7331;DHT22;3706;49.198;7.064;2023-12-29T06:46:26;8.20;99.90
7331;DHT22;3706;49.198;7.064;2023-12-29T06:48:55;8.20;99.90
7331;DHT22;3706;49.198;7.064;2023-12-29T06:51:22;8.20;99.90
7331;DHT22;3706;49.198;7.064;2023-12-29T06:53:50;8.20;99.90
7331;DHT22;3706;49.198;7.064;2023-12-29T06:56:20;8.20;99.90
7331;DHT22;3706;49.198;7.064;2023-12-29T06:58:50;8.30;99.90
7331;DHT22;3706;49.198;7.064;2023-12-29T07:01:19;8.20;99.90
7331;DHT22;3706;49.198;7.064;2023-12-29T07:03:49;8.20;99.90
7331;DHT22;3706;49.198;7.064;2023-12-29T07:06:17;8.30;99.90
7331;DHT22;3706;49.198;7.064;2023-12-29T07:08:44;8.30;99.90
7331;DHT22;3706;49.198;7.064;2023-12-29T07:11:12;8.30;99.90
7331;DHT22;3706;49.198;7.064;2023-12-29T07:13:39;8.30;99.90
7331;DHT22;3706;49.198;7.064;2023-12-29T07:16:08;8.30;99.90
7331;DHT22;3706;49.198;7.064;2023-12-29T07:18:36;8.40;99.90
7331;DHT22;3706;49.198;7.064;2023-12-29T07:21:03;8.40;99.90
7331;DHT22;3706;49.198;7.064;2023-12-29T07:23:30;8.40;99.90
7331;DHT22;3706;49.198;7.064;2023-12-29T07:25:57;8.40;99.90
7331;DHT22;3706;49.198;7.064;2023-12-29T07:28:24;8.40;99.90
7331;DHT22;3706;49.198;7.064;2023-12-29T07:30:54;8.40;99.90
7331;DHT22;3706;49.198;7.064;2023-12-29T07:33:22;8.40;99.90
7331;DHT22;3706;49.198;7.064;2023-12-29T07:35:50;8.40;99.90
7331;DHT22;3706;49.198;7.064;2023-12-29T07:38:17;8.40;99.90
7331;DHT22;3706;49.198;7.064;2023-12-29T07:40:44;8.40;99.90
7331;DHT22;3706;49.198;7.064;2023-12-29T07:43:13;8.40;99.90
7331;DHT22;3706;49.198;7.064;2023-12-29T07:45:41;8.40;99.90
7331;DHT22;3706;49.198;7.064;2023-12-29T07:48:14;8.40;99.90
7331;DHT22;3706;49.198;7.064;2023-12-29T07:50:43;8.40;99.90
7331;DHT22;3706;49.198;7.064;2023-12-29T07:53:12;8.50;99.90
7331;DHT22;3706;49.198;7.064;2023-12-29T07:55:39;8.50;99.90
7331;DHT22;3706;49.198;7.064;2023-12-29T07:58:06;8.50;99.90
7331;DHT22;3706;49.198;7.064;2023-12-29T08:00:36;8.50;99.90
7331;DHT22;3706;49.198;7.064;2023-12-29T08:03:09;8.60;99.90
7331;DHT22;3706;49.198;7.064;2023-12-29T08:05:39;8.60;99.90
7331;DHT22;3706;49.198;7.064;2023-12-29T08:08:12;8.60;99.90
7331;DHT22;3706;49.198;7.064;2023-12-29T08:10:40;8.60;99.90
7331;DHT22;3706;49.198;7.064;2023-12-29T08:13:07;8.70;99.90
7331;DHT22;3706;49.198;7.064;2023-12-29T08:15:35;8.70;99.90
7331;DHT22;3706;49.198;7.064;2023-12-29T08:18:03;8.80;99.90
7331;DHT22;3706;49.198;7.064;2023-12-29T08:20:30;8.80;99.90
7331;DHT22;3706;49.198;7.064;2023-12-29T08:23:00;8.90;99.90
7331;DHT22;3706;49.198;7.064;2023-12-29T08:25:36;9.00;99.90
7331;DHT22;3706;49.198;7.064;2023-12-29T08:28:04;9.10;99.90
7331;DHT22;3706;49.198;7.064;2023-12-29T08:30:33;9.20;99.90
7331;DHT22;3706;49.198;7.064;2023-12-29T08:33:00;9.20;99.90
7331;DHT22;3706;49.198;7.064;2023-12-29T08:35:28;9.20;99.90
7331;DHT22;3706;49.198;7.064;2023-12-29T08:37:55;9.40;99.90
7331;DHT22;3706;49.198;7.064;2023-12-29T08:40:22;9.30;99.90
7331;DHT22;3706;49.198;7.064;2023-12-29T08:42:50;9.30;99.90
7331;DHT22;3706;49.198;7.064;2023-12-29T08:45:18;9.30;99.90
7331;DHT22;3706;49.198;7.064;2023-12-29T08:47:48;9.40;99.90
7331;DHT22;3706;49.198;7.064;2023-12-29T08:50:16;9.40;99.90
7331;DHT22;3706;49.198;7.064;2023-12-29T08:52:43;9.50;99.90
7331;DHT22;3706;49.198;7.064;2023-12-29T08:55:10;9.50;99.90
7331;DHT22;3706;49.198;7.064;2023-12-29T08:57:38;9.60;99.90
7331;DHT22;3706;49.198;7.064;2023-12-29T09:00:08;9.60;99.90
7331;DHT22;3706;49.198;7.064;2023-12-29T09:02:36;9.70;99.90
7331;DHT22;3706;49.198;7.064;2023-12-29T09:05:03;9.80;99.90
7331;DHT22;3706;49.198;7.064;2023-12-29T09:07:30;9.90;99.90
7331;DHT22;3706;49.198;7.064;2023-12-29T09:09:57;9.90;99.90
7331;DHT22;3706;49.198;7.064;2023-12-29T09:12:24;10.00;99.90
7331;DHT22;3706;49.198;7.064;2023-12-29T09:14:51;9.90;99.90
7331;DHT22;3706;49.198;7.064;2023-12-29T09:17:20;9.90;99.90
7331;DHT22;3706;49.198;7.064;2023-12-29T09:19:47;9.90;99.90
7331;DHT22;3706;49.198;7.064;2023-12-29T09:22:14;9.90;99.90
7331;DHT22;3706;49.198;7.064;2023-12-29T09:24:42;9.90;99.90
7331;DHT22;3706;49.198;7.064;2023-12-29T09:27:09;9.80;99.90
7331;DHT22;3706;49.198;7.064;2023-12-29T09:29:37;9.80;99.90
7331;DHT22;3706;49.198;7.064;2023-12-29T09:32:06;9.80;99.90
7331;DHT22;3706;49.198;7.064;2023-12-29T09:34:35;9.70;99.90
7331;DHT22;3706;49.198;7.064;2023-12-29T09:37:03;9.70;99.90
7331;DHT22;3706;49.198;7.064;2023-12-29T09:39:30;9.60;99.90
7331;DHT22;3706;49.198;7.064;2023-12-29T09:41:59;9.70;99.90
7331;DHT22;3706;49.198;7.064;2023-12-29T09:44:28;9.70;99.90
7331;DHT22;3706;49.198;7.064;2023-12-29T09:46:55;9.80;99.90
7331;DHT22;3706;49.198;7.064;2023-12-29T09:49:24;9.80;99.90
7331;DHT22;3706;49.198;7.064;2023-12-29T09:51:54;9.90;99.90
7331;DHT22;3706;49.198;7.064;2023-12-29T09:54:23;9.80;99.90
7331;DHT22;3706;49.198;7.064;2023-12-29T09:56:53;9.80;99.90
7331;DHT22;3706;49.198;7.064;2023-12-29T09:59:21;9.80;99.90
7331;DHT22;3706;49.198;7.064;2023-12-29T10:01:50;9.80;99.90
7331;DHT22;3706;49.198;7.064;2023-12-29T10:04:18;9.80;99.90
7331;DHT22;3706;49.198;7.064;2023-12-29T10:06:55;9.90;99.90
7331;DHT22;3706;49.198;7.064;2023-12-29T10:09:30;9.90;99.90
7331;DHT22;3706;49.198;7.064;2023-12-29T10:12:05;10.00;99.90
7331;DHT22;3706;49.198;7.064;2023-12-29T10:14:46;10.00;99.90
7331;DHT22;3706;49.198;7.064;2023-12-29T10:17:25;10.00;99.90
7331;DHT22;3706;49.198;7.064;2023-12-29T10:20:28;10.00;99.90
7331;DHT22;3706;49.198;7.064;2023-12-29T10:30:27;10.00;99.90
7331;DHT22;3706;49.198;7.064;2023-12-29T10:33:05;10.00;99.90
7331;DHT22;3706;49.198;7.064;2023-12-29T10:35:32;10.00;99.90
7331;DHT22;3706;49.198;7.064;2023-12-29T10:38:19;10.00;99.90
7331;DHT22;3706;49.198;7.064;2023-12-29T10:40:47;10.00;99.90
7331;DHT22;3706;49.198;7.064;2023-12-29T10:43:22;10.10;99.90
7331;DHT22;3706;49.198;7.064;2023-12-29T10:46:08;10.10;99.90
7331;DHT22;3706;49.198;7.064;2023-12-29T10:48:36;10.10;99.90
7331;DHT22;3706;49.198;7.064;2023-12-29T10:51:06;10.00;99.90
7331;DHT22;3706;49.198;7.064;2023-12-29T10:53:34;10.20;99.90
7331;DHT22;3706;49.198;7.064;2023-12-29T10:56:02;10.10;99.90
7331;DHT22;3706;49.198;7.064;2023-12-29T10:58:30;10.20;99.90
7331;DHT22;3706;49.198;7.064;2023-12-29T11:01:01;10.20;99.90
7331;DHT22;3706;49.198;7.064;2023-12-29T11:03:59;10.30;99.90
7331;DHT22;3706;49.198;7.064;2023-12-29T11:06:27;10.30;99.90
7331;DHT22;3706;49.198;7.064;2023-12-29T11:08:55;10.30;99.90
7331;DHT22;3706;49.198;7.064;2023-12-29T11:11:23;10.30;99.90
7331;DHT22;3706;49.198;7.064;2023-12-29T11:16:53;10.40;99.90
7331;DHT22;3706;49.198;7.064;2023-12-29T11:20:12;10.50;99.90
7331;DHT22;3706;49.198;7.064;2023-12-29T11:22:54;10.50;99.90
7331;DHT22;3706;49.198;7.064;2023-12-29T11:25:22;10.50;99.90
7331;DHT22;3706;49.198;7.064;2023-12-29T11:27:50;10.50;99.90
7331;DHT22;3706;49.198;7.064;2023-12-29T11:30:21;10.60;99.90
7331;DHT22;3706;49.198;7.064;2023-12-29T11:32:53;10.70;99.90
7331;DHT22;3706;49.198;7.064;2023-12-29T11:35:27;10.70;99.90
7331;DHT22;3706;49.198;7.064;2023-12-29T11:41:05;10.80;99.90
7331;DHT22;3706;49.198;7.064;2023-12-29T11:43:32;10.70;99.90
7331;DHT22;3706;49.198;7.064;2023-12-29T11:46:00;10.70;99.90
7331;DHT22;3706;49.198;7.064;2023-12-29T11:48:55;10.70;99.90
7331;DHT22;3706;49.198;7.064;2023-12-29T11:51:32;10.70;99.90
7331;DHT22;3706;49.198;7.064;2023-12-29T11:54:00;10.70;99.90
7331;DHT22;3706;49.198;7.064;2023-12-29T11:56:40;10.70;99.90
7331;DHT22;3706;49.198;7.064;2023-12-29T11:59:18;10.70;99.90
7331;DHT22;3706;49.198;7.064;2023-12-29T12:01:49;10.70;99.90
7331;DHT22;3706;49.198;7.064;2023-12-29T12:04:43;10.70;99.90
7331;DHT22;3706;49.198;7.064;2023-12-29T12:07:16;10.70;99.90
7331;DHT22;3706;49.198;7.064;2023-12-29T12:09:47;10.80;99.90
7331;DHT22;3706;49.198;7.064;2023-12-29T12:12:40;10.80;99.90
7331;DHT22;3706;49.198;7.064;2023-12-29T12:15:31;10.80;99.90
7331;DHT22;3706;49.198;7.064;2023-12-29T12:18:04;10.80;99.90
7331;DHT22;3706;49.198;7.064;2023-12-29T12:20:37;10.70;99.90
7331;DHT22;3706;49.198;7.064;2023-12-29T12:23:10;10.60;99.90
7331;DHT22;3706;49.198;7.064;2023-12-29T12:25:41;10.70;99.90
7331;DHT22;3706;49.198;7.064;2023-12-29T12:28:09;10.60;99.90
7331;DHT22;3706;49.198;7.064;2023-12-29T12:30:36;10.50;99.90
7331;DHT22;3706;49.198;7.064;2023-12-29T12:33:07;10.50;99.90
7331;DHT22;3706;49.198;7.064;2023-12-29T12:35:36;10.40;99.90
7331;DHT22;3706;49.198;7.064;2023-12-29T12:38:09;10.40;99.90
7331;DHT22;3706;49.198;7.064;2023-12-29T12:40:36;10.40;99.90
7331;DHT22;3706;49.198;7.064;2023-12-29T12:43:07;10.40;99.90
7331;DHT22;3706;49.198;7.064;2023-12-29T12:45:42;10.40;99.90
7331;DHT22;3706;49.198;7.064;2023-12-29T12:48:13;10.40;99.90
7331;DHT22;3706;49.198;7.064;2023-12-29T12:50:43;10.40;99.90
7331;DHT22;3706;49.198;7.064;2023-12-29T12:53:12;10.40;99.90
7331;DHT22;3706;49.198;7.064;2023-12-29T12:55:48;10.40;99.90
7331;DHT22;3706;49.198;7.064;2023-12-29T12:58:21;10.40;99.90
7331;DHT22;3706;49.198;7.064;2023-12-29T13:00:52;10.40;99.90
7331;DHT22;3706;49.198;7.064;2023-12-29T13:03:26;10.40;99.90
7331;DHT22;3706;49.198;7.064;2023-12-29T13:05:57;10.30;99.90
7331;DHT22;3706;49.198;7.064;2023-12-29T13:08:28;10.10;99.90
7331;DHT22;3706;49.198;7.064;2023-12-29T13:11:03;9.90;99.90
7331;DHT22;3706;49.198;7.064;2023-12-29T13:13:55;9.80;99.90
7331;DHT22;3706;49.198;7.064;2023-12-29T13:20:13;9.80;99.90
7331;DHT22;3706;49.198;7.064;2023-12-29T13:28:36;9.90;99.90
7331;DHT22;3706;49.198;7.064;2023-12-29T13:31:04;10.00;99.90
7331;DHT22;3706;49.198;7.064;2023-12-29T13:33:36;10.00;99.90
7331;DHT22;3706;49.198;7.064;2023-12-29T13:36:11;10.10;99.90
7331;DHT22;3706;49.198;7.064;2023-12-29T13:38:53;10.20;99.90
7331;DHT22;3706;49.198;7.064;2023-12-29T13:41:21;10.20;99.90
7331;DHT22;3706;49.198;7.064;2023-12-29T13:43:51;10.30;99.90
7331;DHT22;3706;49.198;7.064;2023-12-29T13:46:20;10.30;99.90
7331;DHT22;3706;49.198;7.064;2023-12-29T13:48:47;10.40;99.90
7331;DHT22;3706;49.198;7.064;2023-12-29T13:51:17;10.40;99.90
7331;DHT22;3706;49.198;7.064;2023-12-29T13:54:00;10.40;99.90
7331;DHT22;3706;49.198;7.064;2023-12-29T13:56:31;10.40;99.90
7331;DHT22;3706;49.198;7.064;2023-12-29T13:59:00;10.40;99.90
7331;DHT22;3706;49.198;7.064;2023-12-29T14:01:35;10.40;99.90
7331;DHT22;3706;49.198;7.064;2023-12-29T14:04:03;10.40;99.90
7331;DHT22;3706;49.198;7.064;2023-12-29T14:06:39;10.40;99.90
7331;DHT22;3706;49.198;7.064;2023-12-29T14:09:14;10.40;99.90
7331;DHT22;3706;49.198;7.064;2023-12-29T14:11:44;10.40;99.90
7331;DHT22;3706;49.198;7.064;2023-12-29T14:14:13;10.40;99.90
7331;DHT22;3706;49.198;7.064;2023-12-29T14:16:40;10.40;99.90
7331;DHT22;3706;49.198;7.064;2023-12-29T14:19:09;10.40;99.90
7331;DHT22;3706;49.198;7.064;2023-12-29T14:21:37;10.50;99.90
7331;DHT22;3706;49.198;7.064;2023-12-29T14:24:21;10.40;99.90
7331;DHT22;3706;49.198;7.064;2023-12-29T14:26:57;10.30;99.90
7331;DHT22;3706;49.198;7.064;2023-12-29T14:29:26;10.30;99.90
7331;DHT22;3706;49.198;7.064;2023-12-29T14:31:54;10.30;99.90
7331;DHT22;3706;49.198;7.064;2023-12-29T14:34:21;10.30;99.90
7331;DHT22;3706;49.198;7.064;2023-12-29T14:36:49;10.30;99.90
7331;DHT22;3706;49.198;7.064;2023-12-29T14:39:16;10.20;99.90
7331;DHT22;3706;49.198;7.064;2023-12-29T14:41:43;10.20;99.90
7331;DHT22;3706;49.198;7.064;2023-12-29T14:44:11;10.10;99.90
7331;DHT22;3706;49.198;7.064;2023-12-29T14:46:42;10.10;99.90
7331;DHT22;3706;49.198;7.064;2023-12-29T14:49:24;10.10;99.90
7331;DHT22;3706;49.198;7.064;2023-12-29T14:51:55;10.10;99.90
7331;DHT22;3706;49.198;7.064;2023-12-29T14:54:24;10.10;99.90
7331;DHT22;3706;49.198;7.064;2023-12-29T14:56:54;10.00;99.90
7331;DHT22;3706;49.198;7.064;2023-12-29T14:59:21;10.00;99.90
7331;DHT22;3706;49.198;7.064;2023-12-29T15:01:49;9.90;99.90
7331;DHT22;3706;49.198;7.064;2023-12-29T15:04:16;9.80;99.90
7331;DHT22;3706;49.198;7.064;2023-12-29T15:06:43;9.80;99.90
7331;DHT22;3706;49.198;7.064;2023-12-29T15:09:11;9.80;99.90
7331;DHT22;3706;49.198;7.064;2023-12-29T15:11:39;9.70;99.90
7331;DHT22;3706;49.198;7.064;2023-12-29T15:14:06;9.70;99.90
7331;DHT22;3706;49.198;7.064;2023-12-29T15:19:46;9.70;99.90
7331;DHT22;3706;49.198;7.064;2023-12-29T15:22:15;9.70;99.90
7331;DHT22;3706;49.198;7.064;2023-12-29T15:25:06;9.60;99.90
7331;DHT22;3706;49.198;7.064;2023-12-29T15:27:57;9.70;99.90
7331;DHT22;3706;49.198;7.064;2023-12-29T15:30:56;9.50;99.90
7331;DHT22;3706;49.198;7.064;2023-12-29T15:33:54;9.50;99.90
7331;DHT22;3706;49.198;7.064;2023-12-29T15:39:45;9.50;99.90
7331;DHT22;3706;49.198;7.064;2023-12-29T15:42:39;9.40;99.90
7331;DHT22;3706;49.198;7.064;2023-12-29T15:45:35;9.40;99.90
7331;DHT22;3706;49.198;7.064;2023-12-29T15:52:00;9.40;99.90
7331;DHT22;3706;49.198;7.064;2023-12-29T15:54:50;9.40;99.90
7331;DHT22;3706;49.198;7.064;2023-12-29T15:57:58;9.30;99.90
7331;DHT22;3706;49.198;7.064;2023-12-29T16:01:00;9.30;99.90
7331;DHT22;3706;49.198;7.064;2023-12-29T16:03:28;9.40;99.90
7331;DHT22;3706;49.198;7.064;2023-12-29T16:05:58;9.30;99.90
7331;DHT22;3706;49.198;7.064;2023-12-29T16:08:28;9.40;99.90
7331;DHT22;3706;49.198;7.064;2023-12-29T16:10:55;9.40;99.90
7331;DHT22;3706;49.198;7.064;2023-12-29T16:13:22;9.40;99.90
7331;DHT22;3706;49.198;7.064;2023-12-29T16:16:04;9.40;99.90
7331;DHT22;3706;49.198;7.064;2023-12-29T16:18:44;9.40;99.90
7331;DHT22;3706;49.198;7.064;2023-12-29T16:21:11;9.30;99.90
7331;DHT22;3706;49.198;7.064;2023-12-29T16:23:42;9.30;99.90
7331;DHT22;3706;49.198;7.064;2023-12-29T16:26:12;9.30;99.90
7331;DHT22;3706;49.198;7.064;2023-12-29T16:28:40;9.30;99.90
7331;DHT22;3706;49.198;7.064;2023-12-29T16:31:08;9.30;99.90
7331;DHT22;3706;49.198;7.064;2023-12-29T16:33:35;9.30;99.90
7331;DHT22;3706;49.198;7.064;2023-12-29T16:36:07;9.30;99.90
7331;DHT22;3706;49.198;7.064;2023-12-29T16:38:34;9.40;99.90
7331;DHT22;3706;49.198;7.064;2023-12-29T16:41:03;9.30;99.90
7331;DHT22;3706;49.198;7.064;2023-12-29T16:43:31;9.30;99.90
7331;DHT22;3706;49.198;7.064;2023-12-29T16:45:58;9.30;99.90
7331;DHT22;3706;49.198;7.064;2023-12-29T16:48:25;9.40;99.90
7331;DHT22;3706;49.198;7.064;2023-12-29T16:50:52;9.40;99.90
7331;DHT22;3706;49.198;7.064;2023-12-29T16:53:28;9.40;99.90
7331;DHT22;3706;49.198;7.064;2023-12-29T16:55:56;9.40;99.90
7331;DHT22;3706;49.198;7.064;2023-12-29T16:58:27;9.50;99.90
7331;DHT22;3706;49.198;7.064;2023-12-29T17:00:55;9.50;99.90
7331;DHT22;3706;49.198;7.064;2023-12-29T17:03:22;9.50;99.90
7331;DHT22;3706;49.198;7.064;2023-12-29T17:05:50;9.50;99.90
7331;DHT22;3706;49.198;7.064;2023-12-29T17:08:17;9.50;99.90
7331;DHT22;3706;49.198;7.064;2023-12-29T17:10:45;9.50;99.90
7331;DHT22;3706;49.198;7.064;2023-12-29T17:13:12;9.50;99.90
7331;DHT22;3706;49.198;7.064;2023-12-29T17:15:40;9.60;99.90
7331;DHT22;3706;49.198;7.064;2023-12-29T17:18:08;9.60;99.90